Time;durP1;ratioP1;P1;durP2;ratioP2;P2;SDS_P1;SDS_P2;PMS_P1;PMS_P2;Temp;Humidity;BMP_temperature;BMP_pressure;BME280_temperature;BME280_humidity;BME280_pressure;Samples;Min_cycle;Max_cycle;Signal;HPM_P1;HPM_P2
2023/10/25 00:01:16;;;;;;;11.55;7.03;;;9.90;99.90;;;;;;5114237;28;20036;-71
2023/10/25 00:03:42;;;;;;;11.95;6.70;;;9.90;99.90;;;;;;5113923;28;20085;-71
2023/10/25 00:06:08;;;;;;;14.27;7.07;;;9.80;99.90;;;;;;5096204;28;20491;-71
2023/10/25 00:08:33;;;;;;;11.43;6.53;;;9.90;99.90;;;;;;5114006;28;20042;-71
2023/10/25 00:11:06;;;;;;;12.88;6.70;;;9.80;99.90;;;;;;5113914;28;20032;-71
2023/10/25 00:13:32;;;;;;;11.18;7.40;;;9.80;99.90;;;;;;5113922;28;20408;-71
2023/10/25 00:15:57;;;;;;;10.50;6.43;;;9.80;99.90;;;;;;5113710;28;20051;-71
2023/10/25 00:18:26;;;;;;;12.57;6.97;;;9.80;99.90;;;;;;5113583;28;20042;-72
2023/10/25 00:20:52;;;;;;;12.90;6.50;;;9.70;99.90;;;;;;5095158;28;20036;-71
2023/10/25 00:23:21;;;;;;;9.90;6.20;;;9.80;99.90;;;;;;5113659;28;20454;-71
2023/10/25 00:25:50;;;;;;;13.40;7.25;;;9.80;99.90;;;;;;5113738;28;20039;-71
2023/10/25 00:28:17;;;;;;;13.52;6.97;;;9.80;99.90;;;;;;5113542;28;20035;-71
2023/10/25 00:30:46;;;;;;;15.23;6.30;;;9.70;99.90;;;;;;5094913;28;20502;-71
2023/10/25 00:33:11;;;;;;;14.73;7.30;;;9.70;99.90;;;;;;5095027;28;20044;-71
2023/10/25 00:35:37;;;;;;;11.05;7.38;;;9.70;99.90;;;;;;5104784;28;20034;-71
2023/10/25 00:38:03;;;;;;;13.98;7.10;;;9.70;99.90;;;;;;5113315;28;20118;-71
2023/10/25 00:40:28;;;;;;;10.98;8.00;;;9.70;99.90;;;;;;5113334;28;20521;-71
2023/10/25 00:43:16;;;;;;;15.55;7.32;;;9.70;99.90;;;;;;5113190;28;20032;-71
2023/10/25 00:45:53;;;;;;;11.68;6.82;;;9.70;99.90;;;;;;5094421;28;20047;-71
2023/10/25 00:48:18;;;;;;;12.80;6.55;;;9.60;99.90;;;;;;5094822;28;20071;-71
2023/10/25 00:50:44;;;;;;;10.60;6.60;;;9.60;99.90;;;;;;5113103;28;20067;-71
2023/10/25 00:53:10;;;;;;;16.50;7.32;;;9.60;99.90;;;;;;5113171;28;20506;-71
2023/10/25 00:55:35;;;;;;;14.40;6.47;;;9.60;99.90;;;;;;5094881;28;20034;-71
2023/10/25 00:58:01;;;;;;;12.55;6.68;;;9.60;99.90;;;;;;5112779;28;20067;-71
2023/10/25 01:00:27;;;;;;;12.30;6.80;;;9.60;99.90;;;;;;5113045;28;20074;-71
2023/10/25 01:02:52;;;;;;;12.15;6.18;;;9.60;99.90;;;;;;5113020;28;20028;-71
2023/10/25 01:05:19;;;;;;;13.32;5.80;;;9.60;99.90;;;;;;5112867;28;20089;-71
2023/10/25 01:07:44;;;;;;;11.88;6.88;;;9.60;99.90;;;;;;5112889;28;20042;-71
2023/10/25 01:10:10;;;;;;;12.15;7.50;;;9.60;99.90;;;;;;5112753;28;20035;-71
2023/10/25 01:12:35;;;;;;;9.65;6.15;;;9.50;99.90;;;;;;5094421;28;20071;-71
2023/10/25 01:15:01;;;;;;;11.10;6.18;;;9.60;99.90;;;;;;5112932;28;20036;-71
2023/10/25 01:17:26;;;;;;;12.00;6.00;;;9.50;99.90;;;;;;5112855;28;20413;-71
2023/10/25 01:19:52;;;;;;;13.02;6.43;;;9.40;99.90;;;;;;5112541;28;20039;-71
2023/10/25 01:22:18;;;;;;;15.40;6.60;;;9.40;99.90;;;;;;5112474;28;20036;-71
2023/10/25 01:24:43;;;;;;;15.55;6.70;;;9.40;99.90;;;;;;5112365;28;20085;-71
2023/10/25 01:27:09;;;;;;;10.45;5.65;;;9.40;99.90;;;;;;5112339;28;20100;-71
2023/10/25 01:29:34;;;;;;;10.73;6.18;;;9.40;99.90;;;;;;5094165;28;20039;-71
2023/10/25 01:32:00;;;;;;;9.70;6.22;;;9.40;99.90;;;;;;5112160;28;20039;-71
2023/10/25 01:34:25;;;;;;;12.05;7.03;;;9.30;99.90;;;;;;5112564;28;20032;-71
2023/10/25 01:36:51;;;;;;;9.43;5.45;;;9.30;99.90;;;;;;5112353;28;20491;-71
2023/10/25 01:39:17;;;;;;;8.52;5.40;;;9.40;99.90;;;;;;5112414;28;20035;-72
2023/10/25 01:41:42;;;;;;;9.45;5.85;;;9.30;99.90;;;;;;5112112;28;20047;-71
2023/10/25 01:44:08;;;;;;;9.35;5.20;;;9.30;99.90;;;;;;5094286;28;20559;-71
2023/10/25 01:46:33;;;;;;;11.70;6.10;;;9.30;99.90;;;;;;5112447;28;20047;-71
2023/10/25 01:48:59;;;;;;;11.50;5.60;;;9.20;99.90;;;;;;5093863;28;20035;-71
2023/10/25 01:51:25;;;;;;;11.05;5.95;;;9.30;99.90;;;;;;5111978;28;20107;-71
2023/10/25 01:53:50;;;;;;;13.13;5.93;;;9.30;99.90;;;;;;5112170;28;20173;-72
2023/10/25 01:56:16;;;;;;;11.23;5.63;;;9.20;99.90;;;;;;5111951;28;20040;-71
2023/10/25 01:58:41;;;;;;;11.02;5.95;;;9.20;99.90;;;;;;5093390;28;20456;-71
2023/10/25 02:01:07;;;;;;;10.15;5.97;;;9.30;99.90;;;;;;5111851;28;20040;-71
2023/10/25 02:03:33;;;;;;;10.25;6.20;;;9.20;99.90;;;;;;5112149;28;20039;-71
2023/10/25 02:05:58;;;;;;;7.28;4.95;;;9.20;99.90;;;;;;5112210;28;20114;-71
2023/10/25 02:08:24;;;;;;;15.23;6.57;;;9.20;99.90;;;;;;5111964;28;20054;-71
2023/10/25 02:10:49;;;;;;;13.27;7.18;;;9.20;99.90;;;;;;5111680;28;20085;-71
2023/10/25 02:13:15;;;;;;;14.25;6.90;;;9.20;99.90;;;;;;5111955;28;20035;-71
2023/10/25 02:15:41;;;;;;;12.20;6.47;;;9.10;99.90;;;;;;5093992;28;20120;-71
2023/10/25 02:18:06;;;;;;;11.95;5.85;;;9.20;99.90;;;;;;5111955;28;20625;-71
2023/10/25 02:20:32;;;;;;;10.63;6.50;;;9.20;99.90;;;;;;5111912;28;20119;-71
2023/10/25 02:22:57;;;;;;;9.98;6.05;;;9.10;99.90;;;;;;5111708;28;20081;-71
2023/10/25 02:25:23;;;;;;;13.98;6.75;;;9.10;99.90;;;;;;5111716;28;20050;-71
2023/10/25 02:27:49;;;;;;;14.70;5.60;;;9.10;99.90;;;;;;5112001;28;20495;-72
2023/10/25 02:30:14;;;;;;;11.23;5.57;;;9.10;99.90;;;;;;5093427;28;20047;-72
2023/10/25 02:32:40;;;;;;;9.80;6.38;;;9.10;99.90;;;;;;5111651;28;20127;-71
2023/10/25 02:35:06;;;;;;;10.73;5.85;;;9.10;99.90;;;;;;5111931;28;20035;-71
2023/10/25 02:37:31;;;;;;;10.88;6.50;;;9.10;99.90;;;;;;5111631;28;20040;-72
2023/10/25 02:39:57;;;;;;;16.27;7.22;;;9.00;99.90;;;;;;5111616;28;20040;-71
2023/10/25 02:42:22;;;;;;;13.90;6.55;;;9.10;99.90;;;;;;5093292;28;20486;-71
2023/10/25 02:44:48;;;;;;;14.13;6.82;;;9.10;99.90;;;;;;5111609;28;20048;-71
2023/10/25 02:47:13;;;;;;;14.88;6.22;;;9.00;99.90;;;;;;5111723;28;20042;-71
2023/10/25 02:49:39;;;;;;;12.82;6.63;;;9.00;99.90;;;;;;5111632;28;20036;-71
2023/10/25 02:52:05;;;;;;;14.45;6.63;;;9.00;99.90;;;;;;5111529;28;20457;-71
2023/10/25 02:54:30;;;;;;;11.70;6.75;;;9.00;99.90;;;;;;5111642;28;20039;-71
2023/10/25 02:56:56;;;;;;;12.75;7.32;;;8.90;99.90;;;;;;5111470;28;20075;-71
2023/10/25 02:59:21;;;;;;;15.02;6.90;;;9.00;99.90;;;;;;5111693;28;20028;-71
2023/10/25 03:01:47;;;;;;;11.10;7.13;;;9.00;99.90;;;;;;5111225;28;20039;-71
2023/10/25 03:04:12;;;;;;;11.63;7.28;;;9.00;99.90;;;;;;5111527;28;20408;-71
2023/10/25 03:06:38;;;;;;;10.98;7.88;;;9.00;99.90;;;;;;5111495;28;20031;-71
2023/10/25 03:09:04;;;;;;;14.48;8.13;;;8.90;99.90;;;;;;5111617;28;20078;-71
2023/10/25 03:11:29;;;;;;;15.00;6.93;;;9.00;99.90;;;;;;5114834;28;20039;-71
2023/10/25 03:13:55;;;;;;;13.82;7.65;;;9.00;99.90;;;;;;5114991;28;20067;-71
2023/10/25 03:16:20;;;;;;;15.25;8.60;;;9.00;99.90;;;;;;5114853;28;20092;-71
2023/10/25 03:18:46;;;;;;;11.48;6.78;;;9.00;99.90;;;;;;5115025;28;20035;-71
2023/10/25 03:21:11;;;;;;;14.30;7.50;;;9.00;99.90;;;;;;5114788;28;20483;-71
2023/10/25 03:23:37;;;;;;;17.23;8.32;;;8.90;99.90;;;;;;5114787;28;20119;-71
2023/10/25 03:26:07;;;;;;;17.13;7.93;;;8.90;99.90;;;;;;5114692;28;20035;-71
2023/10/25 03:28:34;;;;;;;13.85;7.65;;;8.90;99.90;;;;;;5114873;28;20036;-71
2023/10/25 03:31:06;;;;;;;14.73;8.48;;;8.90;99.90;;;;;;5114513;28;20119;-71
2023/10/25 03:33:32;;;;;;;18.27;8.15;;;8.90;99.90;;;;;;5114707;28;20066;-71
2023/10/25 03:35:58;;;;;;;13.25;7.93;;;8.80;99.90;;;;;;5096363;28;20119;-71
2023/10/25 03:38:24;;;;;;;16.05;8.80;;;8.80;99.90;;;;;;5114278;28;20123;-71
2023/10/25 03:41:03;;;;;;;12.32;7.68;;;8.80;99.90;;;;;;5114534;28;20039;-71
2023/10/25 03:43:29;;;;;;;10.48;7.75;;;8.80;99.90;;;;;;5114404;28;20491;-71
2023/10/25 03:45:55;;;;;;;15.93;8.68;;;8.80;99.90;;;;;;5114480;28;20092;-71
2023/10/25 03:48:21;;;;;;;12.82;7.68;;;8.80;99.90;;;;;;5114309;28;20031;-71
2023/10/25 03:50:46;;;;;;;11.65;7.72;;;8.80;99.90;;;;;;5114011;28;20108;-71
2023/10/25 03:53:12;;;;;;;15.23;8.75;;;8.80;99.90;;;;;;5096274;28;20049;-71
2023/10/25 03:55:37;;;;;;;18.98;8.02;;;8.70;99.90;;;;;;5096117;28;20114;-71
2023/10/25 03:58:03;;;;;;;15.70;7.88;;;8.80;99.90;;;;;;5114150;28;20031;-71
2023/10/25 04:00:28;;;;;;;12.02;8.90;;;8.80;99.90;;;;;;5113972;28;20041;-71
2023/10/25 04:02:54;;;;;;;13.27;7.60;;;8.80;99.90;;;;;;5114058;28;20035;-71
2023/10/25 04:05:20;;;;;;;17.05;8.00;;;8.80;99.90;;;;;;5113900;28;20044;-70
2023/10/25 04:07:45;;;;;;;15.85;8.23;;;8.70;99.90;;;;;;5113789;28;20040;-71
2023/10/25 04:10:11;;;;;;;17.63;8.60;;;8.70;99.90;;;;;;5114041;28;20035;-71
2023/10/25 04:12:37;;;;;;;10.02;7.32;;;8.70;99.90;;;;;;5113869;28;20039;-71
2023/10/25 04:15:02;;;;;;;13.30;7.68;;;8.70;99.90;;;;;;5113913;28;20042;-71
2023/10/25 04:17:28;;;;;;;14.02;7.65;;;8.70;99.90;;;;;;5113776;28;20035;-71
2023/10/25 04:19:53;;;;;;;17.58;8.30;;;8.70;99.90;;;;;;5095067;28;20035;-71
2023/10/25 04:22:19;;;;;;;13.75;7.13;;;8.70;99.90;;;;;;5095239;28;20048;-71
2023/10/25 04:24:45;;;;;;;13.88;7.57;;;8.70;99.90;;;;;;5113579;28;20039;-71
2023/10/25 04:27:10;;;;;;;11.07;7.13;;;8.70;99.90;;;;;;5113713;28;20032;-70
2023/10/25 04:29:36;;;;;;;13.38;6.97;;;8.70;99.90;;;;;;5113479;28;20514;-71
2023/10/25 04:32:02;;;;;;;11.48;6.30;;;8.70;99.90;;;;;;5113476;28;20440;-71
2023/10/25 04:34:27;;;;;;;12.15;8.05;;;8.70;99.90;;;;;;5113468;28;20084;-71
2023/10/25 04:36:55;;;;;;;12.57;6.95;;;8.70;99.90;;;;;;5113236;28;20114;-70
2023/10/25 04:39:20;;;;;;;10.52;7.03;;;8.60;99.90;;;;;;5113619;28;20043;-71
2023/10/25 04:41:46;;;;;;;15.98;7.47;;;8.70;99.90;;;;;;5113164;28;20031;-71
2023/10/25 04:44:13;;;;;;;10.73;6.57;;;8.60;99.90;;;;;;5113155;28;20078;-71
2023/10/25 04:46:38;;;;;;;10.05;6.35;;;8.60;99.90;;;;;;5091600;28;20088;-71
2023/10/25 04:49:04;;;;;;;9.63;6.75;;;8.60;99.90;;;;;;5092774;28;20032;-71
2023/10/25 04:51:30;;;;;;;11.15;6.97;;;8.50;99.90;;;;;;5057695;28;20507;-71
2023/10/25 04:53:55;;;;;;;11.38;6.32;;;8.50;99.90;;;;;;5092885;28;20533;-71
2023/10/25 04:56:23;;;;;;;11.40;7.07;;;8.50;99.90;;;;;;5092822;28;20092;-71
2023/10/25 04:58:48;;;;;;;10.20;6.07;;;8.50;99.90;;;;;;5074580;28;20036;-71
2023/10/25 05:01:14;;;;;;;10.52;7.35;;;8.50;99.90;;;;;;5092311;28;20514;-71
2023/10/25 05:03:41;;;;;;;10.60;6.90;;;8.40;99.90;;;;;;5074495;28;20042;-71
2023/10/25 05:06:07;;;;;;;11.60;6.60;;;8.40;99.90;;;;;;5092435;28;20407;-71
2023/10/25 05:08:34;;;;;;;11.77;6.47;;;8.40;99.90;;;;;;5074170;28;20435;-71
2023/10/25 05:11:04;;;;;;;11.10;6.32;;;8.40;99.90;;;;;;5092252;28;20086;-71
2023/10/25 05:13:30;;;;;;;9.55;6.05;;;8.40;99.90;;;;;;5092322;28;20130;-71
2023/10/25 05:15:55;;;;;;;11.07;6.53;;;8.30;99.90;;;;;;5074162;28;20036;-71
2023/10/25 05:18:21;;;;;;;14.82;6.97;;;8.30;99.90;;;;;;5074014;28;20052;-71
2023/10/25 05:21:01;;;;;;;12.43;6.25;;;8.30;99.90;;;;;;5074092;28;20036;-71
2023/10/25 05:23:31;;;;;;;12.55;7.70;;;8.20;99.90;;;;;;5074074;28;20044;-71
2023/10/25 05:25:59;;;;;;;12.13;6.63;;;8.20;99.90;;;;;;5074322;28;20439;-71
2023/10/25 05:28:25;;;;;;;8.52;6.00;;;8.20;99.90;;;;;;5091950;28;20483;-71
2023/10/25 05:30:53;;;;;;;17.63;7.32;;;8.20;99.90;;;;;;5091771;28;20043;-70
2023/10/25 05:33:21;;;;;;;11.38;6.30;;;8.20;99.90;;;;;;5091433;28;20055;-71
2023/10/25 05:35:47;;;;;;;11.32;6.65;;;8.10;99.90;;;;;;5092111;28;20036;-71
2023/10/25 05:38:13;;;;;;;19.02;7.43;;;8.10;99.90;;;;;;5091827;28;20032;-71
2023/10/25 05:40:40;;;;;;;12.07;6.68;;;8.10;99.90;;;;;;5091649;28;20039;-71
2023/10/25 05:43:13;;;;;;;13.23;6.35;;;8.10;99.90;;;;;;5091944;28;20056;-71
2023/10/25 05:45:39;;;;;;;12.35;7.18;;;8.10;99.90;;;;;;5091905;28;20166;-71
2023/10/25 05:48:09;;;;;;;9.07;5.95;;;8.10;99.90;;;;;;5073824;28;20040;-73
2023/10/25 05:50:36;;;;;;;11.38;6.50;;;8.10;99.90;;;;;;5087564;28;20035;-71
2023/10/25 05:53:02;;;;;;;9.80;6.10;;;8.10;99.90;;;;;;5112138;28;20116;-74
2023/10/25 05:55:28;;;;;;;11.77;6.45;;;8.10;99.90;;;;;;5111991;28;20038;-75
2023/10/25 05:57:54;;;;;;;13.15;6.10;;;8.10;99.90;;;;;;5093703;28;20044;-74
2023/10/25 06:00:20;;;;;;;11.18;6.38;;;8.10;99.90;;;;;;5093734;28;20042;-74
2023/10/25 06:02:48;;;;;;;13.40;5.97;;;8.10;99.90;;;;;;5093827;28;20039;-74
2023/10/25 06:05:14;;;;;;;13.63;8.27;;;8.10;99.90;;;;;;5093754;28;20499;-74
2023/10/25 06:07:40;;;;;;;9.95;6.20;;;8.00;99.90;;;;;;5112003;28;20209;-75
2023/10/25 06:10:07;;;;;;;7.93;5.57;;;8.00;99.90;;;;;;5112262;28;20074;-74
2023/10/25 06:12:32;;;;;;;9.75;6.05;;;8.00;99.90;;;;;;5093783;28;20399;-74
2023/10/25 06:14:58;;;;;;;11.35;6.03;;;8.00;99.90;;;;;;5093781;28;20043;-74
2023/10/25 06:17:24;;;;;;;13.55;6.65;;;8.00;99.90;;;;;;5112044;28;20036;-74
2023/10/25 06:19:52;;;;;;;10.73;6.57;;;8.00;99.90;;;;;;5112180;28;20063;-74
2023/10/25 06:22:18;;;;;;;13.23;6.45;;;8.10;99.90;;;;;;5094066;28;20043;-74
2023/10/25 06:24:43;;;;;;;9.30;6.15;;;8.00;99.90;;;;;;5093769;28;20571;-74
2023/10/25 06:27:09;;;;;;;10.55;5.85;;;8.00;99.90;;;;;;5093826;28;20044;-74
2023/10/25 06:29:34;;;;;;;13.15;7.03;;;8.00;99.90;;;;;;5093926;28;20118;-74
2023/10/25 06:32:00;;;;;;;19.50;9.77;;;8.00;99.90;;;;;;5093496;28;20043;-74
2023/10/25 06:34:26;;;;;;;23.23;9.85;;;8.00;99.90;;;;;;5093598;28;20183;-74
2023/10/25 06:36:51;;;;;;;15.15;8.48;;;8.10;99.90;;;;;;5111690;28;20035;-74
2023/10/25 06:39:17;;;;;;;12.40;6.80;;;8.10;99.90;;;;;;5111836;28;20043;-74
2023/10/25 06:41:43;;;;;;;13.82;7.53;;;8.10;99.90;;;;;;5112168;28;20071;-74
2023/10/25 06:44:09;;;;;;;17.02;7.40;;;8.00;99.90;;;;;;5114178;28;20044;-74
2023/10/25 06:46:35;;;;;;;13.32;6.82;;;8.00;99.90;;;;;;5097787;28;20044;-74
2023/10/25 06:49:01;;;;;;;16.42;11.68;;;8.10;99.90;;;;;;5115875;28;20043;-74
2023/10/25 06:51:27;;;;;;;15.27;11.30;;;8.10;99.90;;;;;;5096986;28;20114;-74
2023/10/25 06:53:53;;;;;;;13.85;8.98;;;8.10;99.90;;;;;;5080280;28;20383;-74
2023/10/25 06:56:19;;;;;;;13.40;8.48;;;8.10;99.90;;;;;;5115215;28;20042;-74
2023/10/25 06:58:45;;;;;;;11.43;6.57;;;8.10;99.90;;;;;;5096498;28;20495;-74
2023/10/25 07:01:12;;;;;;;14.60;6.88;;;8.20;99.90;;;;;;5114759;28;20061;-74
2023/10/25 07:03:44;;;;;;;11.07;7.50;;;8.20;99.90;;;;;;5096733;28;20040;-75
2023/10/25 07:06:11;;;;;;;13.02;8.63;;;8.40;99.90;;;;;;5096526;28;20043;-74
2023/10/25 07:08:37;;;;;;;13.90;8.27;;;8.50;99.90;;;;;;5096871;28;20525;-75
2023/10/25 07:11:03;;;;;;;26.02;8.48;;;8.60;99.90;;;;;;5097174;28;20036;-75
2023/10/25 07:13:32;;;;;;;30.77;8.30;;;8.80;99.90;;;;;;5097291;28;20035;-74
2023/10/25 07:15:58;;;;;;;21.05;7.63;;;8.90;99.90;;;;;;5097006;28;20085;-74
2023/10/25 07:18:24;;;;;;;15.35;7.68;;;9.00;99.90;;;;;;5096470;28;20521;-74
2023/10/25 07:20:50;;;;;;;17.85;9.70;;;9.00;99.90;;;;;;5096118;28;20035;-74
2023/10/25 07:23:16;;;;;;;11.20;6.65;;;9.00;99.90;;;;;;5111994;28;20032;-74
2023/10/25 07:25:43;;;;;;;14.73;7.55;;;9.10;99.90;;;;;;5114364;28;20036;-75
2023/10/25 07:28:09;;;;;;;15.18;6.47;;;9.10;99.90;;;;;;5096655;28;20039;-74
2023/10/25 07:30:35;;;;;;;15.15;7.57;;;9.10;99.90;;;;;;5096521;28;20597;-74
2023/10/25 07:33:01;;;;;;;12.75;7.38;;;9.00;99.90;;;;;;5095851;28;20039;-74
2023/10/25 07:35:26;;;;;;;8.93;6.47;;;9.00;99.90;;;;;;5114321;28;20411;-74
2023/10/25 07:37:52;;;;;;;14.38;7.25;;;9.00;99.90;;;;;;5113974;28;20395;-74
2023/10/25 07:40:18;;;;;;;11.90;6.60;;;8.90;99.90;;;;;;5095591;28;20044;-74
2023/10/25 07:42:43;;;;;;;10.88;6.97;;;8.90;99.90;;;;;;5095886;28;20458;-74
2023/10/25 07:45:09;;;;;;;14.23;6.80;;;8.90;99.90;;;;;;5113939;28;20479;-74
2023/10/25 07:47:35;;;;;;;12.40;6.68;;;8.90;99.90;;;;;;5114555;28;20134;-75
2023/10/25 07:50:01;;;;;;;8.85;6.78;;;8.90;99.90;;;;;;5096309;28;20075;-74
2023/10/25 07:52:29;;;;;;;15.43;7.57;;;8.90;99.90;;;;;;5078834;28;20044;-75
2023/10/25 07:54:55;;;;;;;13.27;6.85;;;8.90;99.90;;;;;;5095656;28;20134;-74
2023/10/25 07:57:21;;;;;;;12.13;7.75;;;8.90;99.90;;;;;;5095796;28;20574;-75
2023/10/25 07:59:46;;;;;;;17.05;7.05;;;9.00;99.90;;;;;;5114259;28;20040;-74
2023/10/25 08:02:12;;;;;;;11.85;7.45;;;9.00;99.90;;;;;;5095923;28;20103;-75
2023/10/25 08:04:37;;;;;;;17.42;7.07;;;9.10;99.90;;;;;;5095945;28;20035;-75
2023/10/25 08:07:03;;;;;;;10.45;6.97;;;9.20;99.90;;;;;;5095650;28;20486;-75
2023/10/25 08:09:30;;;;;;;11.57;7.00;;;9.20;99.90;;;;;;5078789;28;20039;-76
2023/10/25 08:11:56;;;;;;;14.80;9.15;;;9.20;99.90;;;;;;5078304;28;20032;-75
2023/10/25 08:14:22;;;;;;;21.23;11.25;;;9.30;99.90;;;;;;5113759;28;20398;-75
2023/10/25 08:16:47;;;;;;;17.42;8.95;;;9.30;99.90;;;;;;5113787;28;20063;-76
2023/10/25 08:19:15;;;;;;;18.70;11.02;;;9.30;99.90;;;;;;5078823;28;20043;-75
2023/10/25 08:21:40;;;;;;;14.48;7.97;;;9.30;99.90;;;;;;5078292;28;20048;-75
2023/10/25 08:24:07;;;;;;;27.10;13.40;;;9.20;99.90;;;;;;5113862;28;20035;-74
2023/10/25 08:26:39;;;;;;;18.15;9.25;;;9.10;99.90;;;;;;5095542;28;20040;-75
2023/10/25 08:29:06;;;;;;;13.85;8.02;;;9.10;99.90;;;;;;5078696;28;20080;-75
2023/10/25 08:31:32;;;;;;;18.88;9.73;;;9.10;99.90;;;;;;5094822;28;20050;-75
2023/10/25 08:33:59;;;;;;;13.88;7.68;;;9.10;99.90;;;;;;5092344;28;20111;-74
2023/10/25 08:36:25;;;;;;;11.30;6.72;;;9.10;99.90;;;;;;5112802;28;20050;-75
2023/10/25 08:38:50;;;;;;;12.30;7.45;;;9.10;99.90;;;;;;5094820;28;20040;-75
2023/10/25 08:41:19;;;;;;;14.05;6.85;;;9.10;99.90;;;;;;5112178;28;20043;-74
2023/10/25 08:43:45;;;;;;;13.80;7.80;;;9.20;99.90;;;;;;5091144;28;20040;-74
2023/10/25 08:46:13;;;;;;;13.93;7.00;;;9.20;99.90;;;;;;5091444;28;20089;-74
2023/10/25 08:48:38;;;;;;;13.30;8.70;;;9.30;99.90;;;;;;5101538;28;20503;-75
2023/10/25 08:51:05;;;;;;;11.70;7.78;;;9.30;99.90;;;;;;5076406;28;20051;-75
2023/10/25 08:53:31;;;;;;;15.48;7.82;;;9.40;99.90;;;;;;5083072;28;20089;-75
2023/10/25 08:55:58;;;;;;;14.30;8.68;;;9.40;99.90;;;;;;5087535;28;20115;-75
2023/10/25 08:58:25;;;;;;;12.38;8.07;;;9.50;99.90;;;;;;5089854;28;20448;-75
2023/10/25 09:00:52;;;;;;;12.68;8.75;;;9.50;99.90;;;;;;5106809;28;20050;-75
2023/10/25 09:03:30;;;;;;;18.05;9.52;;;9.60;99.90;;;;;;5094414;28;20078;-75
2023/10/25 09:05:55;;;;;;;17.50;8.75;;;9.60;99.90;;;;;;5086132;28;20047;-75
2023/10/25 09:08:21;;;;;;;12.02;8.85;;;9.60;99.90;;;;;;5111623;28;20519;-75
2023/10/25 09:11:08;;;;;;;18.63;8.85;;;9.70;99.90;;;;;;5103983;28;20107;-75
2023/10/25 09:13:35;;;;;;;13.30;8.88;;;9.70;99.90;;;;;;5112602;28;20043;-75
2023/10/25 09:16:09;;;;;;;16.02;9.20;;;9.80;99.90;;;;;;5085903;28;20031;-74
2023/10/25 09:18:36;;;;;;;16.45;8.82;;;9.80;99.90;;;;;;5112845;28;20506;-74
2023/10/25 09:21:04;;;;;;;17.13;9.63;;;9.90;99.90;;;;;;5094181;28;20035;-75
2023/10/25 09:23:29;;;;;;;17.67;10.00;;;9.90;99.90;;;;;;5094186;28;20039;-75
2023/10/25 09:25:58;;;;;;;14.40;8.65;;;9.90;99.90;;;;;;5096064;28;20071;-75
2023/10/25 09:28:28;;;;;;;14.77;9.35;;;10.00;99.90;;;;;;5094398;28;20043;-75
2023/10/25 09:30:58;;;;;;;17.67;9.95;;;9.90;99.90;;;;;;5093995;28;20384;-75
2023/10/25 09:33:25;;;;;;;17.58;9.80;;;9.90;99.90;;;;;;5094457;28;20035;-75
2023/10/25 09:35:52;;;;;;;17.77;9.95;;;10.00;99.90;;;;;;5094207;28;20084;-75
2023/10/25 09:38:17;;;;;;;12.98;9.02;;;10.00;99.90;;;;;;5093932;28;20046;-75
2023/10/25 09:40:44;;;;;;;19.75;11.32;;;10.00;99.90;;;;;;5094090;28;20465;-75
2023/10/25 09:43:21;;;;;;;15.75;9.32;;;10.00;99.90;;;;;;5094065;28;20051;-75
2023/10/25 09:45:54;;;;;;;20.08;10.23;;;10.20;99.90;;;;;;5094074;28;20035;-75
2023/10/25 09:48:20;;;;;;;15.50;10.05;;;10.10;99.90;;;;;;5094196;28;20443;-75
2023/10/25 09:50:58;;;;;;;19.13;10.85;;;10.30;99.90;;;;;;5093742;28;20047;-75
2023/10/25 09:53:28;;;;;;;19.85;11.00;;;10.30;99.90;;;;;;5112109;28;20036;-74
2023/10/25 09:56:00;;;;;;;21.15;10.57;;;10.40;99.90;;;;;;5112378;28;20035;-75
2023/10/25 09:58:28;;;;;;;14.50;10.23;;;10.50;99.90;;;;;;5094108;28;20515;-75
2023/10/25 10:00:55;;;;;;;19.75;11.40;;;10.60;99.90;;;;;;5112005;28;20032;-75
2023/10/25 10:03:25;;;;;;;17.25;10.48;;;10.70;99.90;;;;;;5093734;28;20557;-74
2023/10/25 10:05:58;;;;;;;18.48;11.20;;;10.80;99.90;;;;;;5093864;28;20668;-75
2023/10/25 10:08:36;;;;;;;15.32;9.45;;;10.90;99.90;;;;;;5093785;28;20089;-75
2023/10/25 10:11:09;;;;;;;17.17;10.52;;;10.90;99.90;;;;;;5111955;28;20042;-75
2023/10/25 10:13:34;;;;;;;20.30;10.30;;;11.00;99.90;;;;;;5111998;28;20034;-75
2023/10/25 10:16:09;;;;;;;17.55;10.30;;;11.10;99.90;;;;;;5085401;28;20434;-75
2023/10/25 10:18:48;;;;;;;18.75;10.88;;;11.30;99.90;;;;;;5078271;28;20039;-75
2023/10/25 10:21:32;;;;;;;14.20;9.95;;;11.30;99.90;;;;;;5081011;28;20039;-75
2023/10/25 10:25:04;;;;;;;13.88;9.43;;;11.30;99.90;;;;;;5081157;28;20590;-75
2023/10/25 10:28:31;;;;;;;15.15;9.73;;;11.50;99.90;;;;;;5050672;28;20047;-75
2023/10/25 10:31:04;;;;;;;15.95;9.23;;;11.70;99.90;;;;;;5081118;28;20042;-75
2023/10/25 10:33:29;;;;;;;17.15;9.52;;;11.70;99.90;;;;;;5097905;28;20032;-75
2023/10/25 10:35:59;;;;;;;14.57;9.05;;;11.70;99.90;;;;;;5097557;28;20038;-75
2023/10/25 10:38:25;;;;;;;14.88;8.88;;;11.80;99.90;;;;;;5097344;28;20036;-75
2023/10/25 10:40:53;;;;;;;15.18;8.45;;;11.90;99.90;;;;;;5076000;28;20031;-75
2023/10/25 10:43:20;;;;;;;17.50;8.52;;;11.90;99.90;;;;;;5087297;28;20032;-75
2023/10/25 10:45:52;;;;;;;15.40;8.45;;;11.90;99.90;;;;;;5085497;28;20046;-75
2023/10/25 10:48:21;;;;;;;20.40;9.63;;;12.00;99.90;;;;;;5086265;28;20031;-75
2023/10/25 10:50:49;;;;;;;9.75;7.65;;;12.00;99.90;;;;;;5082120;28;20036;-75
2023/10/25 10:53:14;;;;;;;14.15;7.97;;;12.10;99.90;;;;;;5076854;28;20108;-75
2023/10/25 10:55:40;;;;;;;10.02;8.10;;;12.10;99.90;;;;;;5076844;28;20044;-75
2023/10/25 10:58:07;;;;;;;13.85;7.75;;;12.10;99.90;;;;;;5076656;28;20036;-75
2023/10/25 11:00:33;;;;;;;11.18;8.02;;;12.10;99.90;;;;;;5076856;28;20036;-75
2023/10/25 11:03:04;;;;;;;13.52;7.60;;;12.20;99.90;;;;;;5076541;28;20561;-75
2023/10/25 11:05:31;;;;;;;12.85;8.23;;;12.20;99.90;;;;;;5076644;28;20530;-75
2023/10/25 11:07:57;;;;;;;11.00;7.45;;;12.30;99.90;;;;;;5076546;28;20036;-73
2023/10/25 11:10:22;;;;;;;15.13;7.93;;;12.40;99.90;;;;;;5076351;28;20472;-73
2023/10/25 11:12:51;;;;;;;11.77;7.13;;;12.30;99.90;;;;;;5076632;28;20039;-77
2023/10/25 11:15:19;;;;;;;14.23;8.20;;;12.40;99.90;;;;;;5060038;28;20039;-76
2023/10/25 11:17:45;;;;;;;14.55;7.60;;;12.40;99.90;;;;;;5076477;28;20048;-76
2023/10/25 11:20:10;;;;;;;16.15;7.55;;;12.50;99.90;;;;;;5107062;28;20047;-76
2023/10/25 11:22:36;;;;;;;9.68;6.90;;;12.40;99.90;;;;;;5094996;28;20039;-76
2023/10/25 11:25:08;;;;;;;11.25;6.20;;;12.60;99.90;;;;;;5095257;28;20541;-76
2023/10/25 11:27:35;;;;;;;11.17;6.57;;;12.60;99.90;;;;;;5095943;28;20559;-74
2023/10/25 11:30:01;;;;;;;9.23;6.03;;;12.60;99.90;;;;;;5094489;28;20075;-74
2023/10/25 11:32:31;;;;;;;10.07;6.60;;;12.60;99.90;;;;;;5095843;28;20127;-74
2023/10/25 11:34:58;;;;;;;9.10;5.85;;;12.60;99.90;;;;;;5095829;28;20043;-74
2023/10/25 11:37:25;;;;;;;8.68;5.47;;;12.60;99.90;;;;;;5089631;28;20039;-74
2023/10/25 11:40:01;;;;;;;7.38;4.90;;;12.60;99.90;;;;;;5087093;28;20088;-74
2023/10/25 11:42:28;;;;;;;8.02;5.13;;;12.60;99.90;;;;;;5095222;28;20126;-74
2023/10/25 11:44:54;;;;;;;12.45;6.38;;;12.50;99.90;;;;;;5114496;28;20035;-73
2023/10/25 11:47:21;;;;;;;9.35;5.38;;;12.60;99.90;;;;;;5079189;28;20043;-73
2023/10/25 11:49:57;;;;;;;10.45;6.03;;;12.60;99.90;;;;;;5095921;28;20065;-73
2023/10/25 11:52:28;;;;;;;10.00;5.07;;;12.60;99.90;;;;;;5114092;28;20032;-74
2023/10/25 11:54:55;;;;;;;8.95;5.78;;;12.60;99.90;;;;;;5092921;28;20036;-73
2023/10/25 11:57:28;;;;;;;10.95;6.00;;;12.60;99.90;;;;;;5069118;28;20134;-74
2023/10/25 11:59:54;;;;;;;;;;;12.60;99.90;;;;;;5086848;28;20114;-74
2023/10/25 12:02:21;;;;;;;11.60;5.82;;;12.50;99.90;;;;;;5090759;28;19955;-73
2023/10/25 12:04:47;;;;;;;8.15;5.43;;;12.50;99.90;;;;;;5114000;28;20059;-73
2023/10/25 12:07:13;;;;;;;13.38;6.53;;;12.50;99.90;;;;;;5114082;28;20044;-74
2023/10/25 12:09:39;;;;;;;8.90;5.15;;;12.40;99.90;;;;;;5095825;28;20452;-73
2023/10/25 12:12:08;;;;;;;9.50;5.38;;;12.40;99.90;;;;;;5113755;28;20039;-74
2023/10/25 12:14:33;;;;;;;7.03;5.85;;;12.40;99.90;;;;;;5113839;28;20043;-73
2023/10/25 12:16:59;;;;;;;9.50;4.40;;;12.40;99.90;;;;;;5095296;28;20040;-73
2023/10/25 12:19:25;;;;;;;8.15;4.75;;;12.40;99.90;;;;;;5095374;28;20031;-76
2023/10/25 12:21:54;;;;;;;9.02;5.50;;;12.40;99.90;;;;;;5113606;28;20043;-76
2023/10/25 12:24:21;;;;;;;8.48;4.55;;;12.40;99.90;;;;;;5095272;28;20036;-76
2023/10/25 12:26:47;;;;;;;9.10;4.65;;;12.40;99.90;;;;;;5095401;28;20497;-76
2023/10/25 12:29:12;;;;;;;7.95;4.72;;;12.40;99.90;;;;;;5089166;28;20066;-73
2023/10/25 12:31:38;;;;;;;6.95;4.35;;;12.30;99.90;;;;;;5084788;28;20129;-74
2023/10/25 12:34:04;;;;;;;5.72;4.13;;;12.40;99.90;;;;;;5085118;28;20147;-74
2023/10/25 12:36:29;;;;;;;7.13;3.92;;;12.30;99.90;;;;;;5077892;28;20063;-73
2023/10/25 12:38:55;;;;;;;9.80;5.03;;;12.30;99.90;;;;;;5074954;28;20089;-73
2023/10/25 12:41:20;;;;;;;6.93;4.75;;;12.40;99.90;;;;;;5092721;28;20043;-74
2023/10/25 12:43:47;;;;;;;11.75;4.68;;;12.30;99.90;;;;;;5074789;28;20044;-75
2023/10/25 12:46:13;;;;;;;9.55;4.97;;;12.30;99.90;;;;;;5074810;28;20048;-74